Time;durP1;ratioP1;P1;durP2;ratioP2;P2;SDS_P1;SDS_P2;PMS_P1;PMS_P2;Temp;Humidity;BMP_temperature;BMP_pressure;BME280_temperature;BME280_humidity;BME280_pressure;Samples;Min_cycle;Max_cycle;Signal;HPM_P1;HPM_P2
2021/09/23 00:04:14;;;;;;;4.60;0.70;;;18.10;64.30;;;;;;20864867;28;79887;-71
2021/09/23 00:14:16;;;;;;;2.28;1.13;;;18.10;64.60;;;;;;20882783;28;81854;-71
2021/09/23 00:24:18;;;;;;;3.43;0.97;;;18.00;65.00;;;;;;20880316;28;81084;-71
2021/09/23 00:34:20;;;;;;;2.30;0.80;;;17.90;65.10;;;;;;20863711;28;81141;-71
2021/09/23 00:44:23;;;;;;;;;;;17.90;65.00;;;;;;20876468;28;81249;-70
2021/09/23 00:54:25;;;;;;;1.50;0.70;;;17.80;65.00;;;;;;20916007;28;80997;-72
2021/09/23 01:04:28;;;;;;;1.63;0.80;;;17.70;65.20;;;;;;20894143;28;79977;-71
2021/09/23 01:14:31;;;;;;;2.05;0.98;;;17.70;65.50;;;;;;20893166;28;81918;-70
2021/09/23 01:24:36;;;;;;;3.80;0.70;;;17.70;65.40;;;;;;20893509;28;81735;-70
2021/09/23 01:34:39;;;;;;;3.40;1.10;;;17.60;65.50;;;;;;20892278;28;81632;-71
2021/09/23 01:44:48;;;;;;;1.90;0.70;;;17.80;65.90;;;;;;20891129;28;80765;-71
2021/09/23 01:54:54;;;;;;;2.60;0.88;;;17.90;65.40;;;;;;20872828;28;81895;-72
2021/09/23 02:05:02;;;;;;;1.27;0.60;;;17.70;65.40;;;;;;20890837;27;80736;-70
2021/09/23 02:15:08;;;;;;;2.83;0.88;;;17.60;66.00;;;;;;20888822;28;80057;-71
2021/09/23 02:25:11;;;;;;;3.20;0.80;;;17.50;65.50;;;;;;20871008;28;80587;-70
2021/09/23 02:35:15;;;;;;;2.80;0.80;;;17.50;65.30;;;;;;20889128;28;81752;-71
2021/09/23 02:45:18;;;;;;;2.03;0.82;;;17.40;65.50;;;;;;20869522;28;80604;-72
2021/09/23 02:55:21;;;;;;;1.95;1.10;;;17.30;65.70;;;;;;20886811;28;82406;-71
2021/09/23 03:05:30;;;;;;;3.65;1.20;;;17.20;65.90;;;;;;20869288;27;80851;-71
2021/09/23 03:15:36;;;;;;;3.33;1.00;;;17.00;66.50;;;;;;20886181;28;80779;-72
2021/09/23 03:25:43;;;;;;;3.53;1.00;;;17.10;66.70;;;;;;20884936;28;80604;-71
2021/09/23 03:35:50;;;;;;;2.72;1.02;;;17.20;66.50;;;;;;20885064;28;80953;-70
2021/09/23 03:46:03;;;;;;;2.08;1.10;;;17.30;66.60;;;;;;20867105;28;81294;-72
2021/09/23 03:56:13;;;;;;;4.27;1.30;;;17.40;66.90;;;;;;20882982;28;81062;-72
2021/09/23 04:06:42;;;;;;;2.85;1.48;;;17.50;66.50;;;;;;20867779;28;82471;-71
2021/09/23 04:16:59;;;;;;;3.80;1.00;;;17.50;66.30;;;;;;20892601;27;81939;-72
2021/09/23 04:27:08;;;;;;;2.33;1.10;;;17.60;66.10;;;;;;20897455;28;80836;-71
2021/09/23 04:37:17;;;;;;;2.90;1.10;;;17.60;66.00;;;;;;20895580;27;80685;-70
2021/09/23 04:47:24;;;;;;;3.28;1.40;;;17.70;65.80;;;;;;20878709;28;79916;-72
2021/09/23 04:57:33;;;;;;;2.83;1.30;;;17.60;65.80;;;;;;20878230;28;80555;-70
2021/09/23 05:07:40;;;;;;;2.85;1.50;;;17.50;65.90;;;;;;20876605;27;81030;-70
2021/09/23 05:17:44;;;;;;;3.67;1.30;;;17.60;65.70;;;;;;20861202;28;81667;-69
2021/09/23 05:27:47;;;;;;;3.60;1.50;;;17.60;65.60;;;;;;20859282;27;81670;-69
2021/09/23 05:37:50;;;;;;;4.43;1.85;;;17.50;66.20;;;;;;20877437;28;81854;-67
2021/09/23 05:47:52;;;;;;;2.80;1.30;;;17.50;66.40;;;;;;20879851;28;81803;-70
2021/09/23 05:57:54;;;;;;;4.40;1.50;;;17.50;66.20;;;;;;20879096;28;81807;-68
2021/09/23 06:07:56;;;;;;;2.93;1.40;;;17.50;66.20;;;;;;20879299;28;81866;-69
2021/09/23 06:18:00;;;;;;;4.88;1.60;;;17.60;66.70;;;;;;20875007;27;82049;-70
2021/09/23 06:28:02;;;;;;;3.17;1.70;;;17.70;66.00;;;;;;20876894;28;81806;-70
2021/09/23 06:38:05;;;;;;;4.40;1.85;;;17.70;65.50;;;;;;20872730;27;81893;-69
2021/09/23 06:48:08;;;;;;;6.93;1.90;;;17.70;65.20;;;;;;20875146;28;81473;-69
2021/09/23 06:58:10;;;;;;;6.77;1.87;;;17.70;65.40;;;;;;20870933;27;81738;-68
2021/09/23 07:08:20;;;;;;;6.00;1.80;;;17.80;65.10;;;;;;20869842;27;80951;-69
2021/09/23 07:18:23;;;;;;;3.42;1.58;;;17.90;64.40;;;;;;20874044;27;81192;-69
2021/09/23 07:28:25;;;;;;;4.73;2.13;;;18.20;63.80;;;;;;20855326;28;81515;-70
2021/09/23 07:38:28;;;;;;;5.93;1.90;;;18.30;63.20;;;;;;20873232;28;82118;-71
2021/09/23 07:48:32;;;;;;;4.20;1.77;;;18.40;63.10;;;;;;20877055;27;80831;-65
2021/09/23 07:58:34;;;;;;;8.25;2.22;;;18.70;62.00;;;;;;20870213;28;81390;-65
2021/09/23 08:08:36;;;;;;;6.27;2.43;;;18.90;61.20;;;;;;20868441;28;82150;-66
2021/09/23 08:18:40;;;;;;;4.13;1.65;;;19.10;60.80;;;;;;20867125;27;81808;-65
2021/09/23 08:28:42;;;;;;;3.23;1.27;;;19.50;59.70;;;;;;20865685;28;82044;-64
2021/09/23 08:38:46;;;;;;;;;;;20.20;58.20;;;;;;20883074;27;81837;-65
2021/09/23 08:48:51;;;;;;;7.80;1.80;;;20.70;57.80;;;;;;20908408;28;81672;-64
2021/09/23 08:58:54;;;;;;;3.20;1.67;;;21.40;55.00;;;;;;20883972;27;81379;-67
2021/09/23 09:08:56;;;;;;;3.67;1.40;;;21.30;55.30;;;;;;20865001;28;81552;-63
2021/09/23 09:19:00;;;;;;;5.82;1.35;;;21.50;55.10;;;;;;20878966;27;80647;-65
2021/09/23 09:29:05;;;;;;;5.75;1.63;;;22.90;52.10;;;;;;20858610;28;81320;-65
2021/09/23 09:39:14;;;;;;;5.00;1.33;;;24.30;48.70;;;;;;20880506;27;81515;-66
2021/09/23 09:49:22;;;;;;;3.25;1.30;;;24.50;48.20;;;;;;20855917;28;80945;-65
2021/09/23 09:59:25;;;;;;;3.63;1.60;;;24.80;47.60;;;;;;20874755;27;81496;-65
2021/09/23 10:09:31;;;;;;;3.88;1.40;;;25.30;46.50;;;;;;20874914;27;81980;-66
2021/09/23 10:19:35;;;;;;;7.13;2.35;;;25.90;45.40;;;;;;20874021;28;82277;-67
2021/09/23 10:29:38;;;;;;;3.05;1.23;;;29.90;37.90;;;;;;20854633;28;80724;-68
2021/09/23 10:39:41;;;;;;;4.45;1.08;;;33.10;32.40;;;;;;20871649;28;81570;-66
2021/09/23 10:49:47;;;;;;;3.72;1.08;;;31.50;34.80;;;;;;20878821;28;80856;-67
2021/09/23 10:59:49;;;;;;;2.70;1.20;;;32.70;32.80;;;;;;20858942;28;81071;-67
2021/09/23 11:10:11;;;;;;;4.50;1.30;;;32.30;33.50;;;;;;20877750;28;81140;-67
2021/09/23 11:20:16;;;;;;;12.73;2.00;;;39.10;25.50;;;;;;20875324;28;81814;-67
2021/09/23 11:30:22;;;;;;;2.72;1.05;;;40.00;24.10;;;;;;20875213;28;80735;-67
2021/09/23 11:40:30;;;;;;;2.60;0.95;;;34.00;30.60;;;;;;20872680;27;81846;-66
2021/09/23 11:50:35;;;;;;;4.88;0.90;;;36.20;27.90;;;;;;20874023;28;81921;-65
2021/09/23 12:00:42;;;;;;;2.95;1.17;;;42.30;21.70;;;;;;20870732;27;81324;-64
2021/09/23 12:10:53;;;;;;;2.92;0.90;;;39.10;24.90;;;;;;20865813;27;81609;-66
2021/09/23 12:20:59;;;;;;;5.60;1.80;;;33.40;30.90;;;;;;20866369;28;81704;-68
2021/09/23 12:31:03;;;;;;;2.38;0.80;;;30.40;35.60;;;;;;20866012;27;80902;-68
2021/09/23 12:41:20;;;;;;;3.78;1.20;;;30.20;35.90;;;;;;20879543;28;81823;-67
2021/09/23 12:51:49;;;;;;;3.85;1.30;;;29.60;36.80;;;;;;20879022;28;81350;-67
2021/09/23 13:02:10;;;;;;;3.13;1.15;;;30.90;35.00;;;;;;20874927;28;81216;-68
2021/09/23 13:12:13;;;;;;;2.50;0.90;;;34.00;30.30;;;;;;20890818;28;81285;-68
2021/09/23 13:22:19;;;;;;;3.15;1.05;;;35.20;28.50;;;;;;20873660;28;80512;-69
2021/09/23 13:32:20;;;;;;;2.00;0.70;;;33.20;30.70;;;;;;20893652;28;80746;-70
2021/09/23 13:42:24;;;;;;;4.35;0.70;;;34.00;29.60;;;;;;20895474;28;82131;-69
2021/09/23 13:52:26;;;;;;;2.35;1.00;;;32.50;31.70;;;;;;20892416;27;80016;-68
2021/09/23 14:02:28;;;;;;;3.40;1.75;;;36.20;27.70;;;;;;20894530;28;80721;-68
2021/09/23 14:12:32;;;;;;;2.83;0.90;;;37.30;26.30;;;;;;20893545;28;82071;-71
2021/09/23 14:22:33;;;;;;;3.17;0.93;;;37.30;25.90;;;;;;20892326;28;79947;-67
2021/09/23 14:32:35;;;;;;;4.88;0.93;;;33.00;30.50;;;;;;20889840;27;81821;-67
2021/09/23 14:42:38;;;;;;;4.68;1.60;;;31.90;32.50;;;;;;20890543;27;82160;-68
2021/09/23 14:52:40;;;;;;;5.07;1.10;;;33.20;30.80;;;;;;20888199;27;80087;-69
2021/09/23 15:02:42;;;;;;;4.50;1.40;;;36.40;27.50;;;;;;20869987;28;79968;-68
2021/09/23 15:12:44;;;;;;;3.50;0.80;;;37.40;25.90;;;;;;20866899;28;81924;-68
2021/09/23 15:22:47;;;;;;;2.40;0.90;;;33.90;30.00;;;;;;20884484;28;81906;-68
2021/09/23 15:32:49;;;;;;;4.82;0.95;;;31.30;33.00;;;;;;20869669;28;80763;-68
2021/09/23 15:42:51;;;;;;;3.53;1.25;;;29.80;34.70;;;;;;20886853;28;80269;-68
2021/09/23 15:52:53;;;;;;;5.55;1.27;;;30.50;34.00;;;;;;20868945;28;80773;-68
2021/09/23 16:02:55;;;;;;;7.22;1.08;;;30.30;34.10;;;;;;20886414;28;81964;-67
2021/09/23 16:12:57;;;;;;;3.90;1.00;;;29.50;35.30;;;;;;20895624;27;81739;-67
2021/09/23 16:23:00;;;;;;;3.20;0.90;;;29.00;36.10;;;;;;20899487;28;80652;-69
2021/09/23 16:33:02;;;;;;;4.47;1.42;;;28.70;36.80;;;;;;20880953;28;80579;-67
2021/09/23 16:43:04;;;;;;;9.60;1.17;;;28.00;37.80;;;;;;20897398;27;80859;-68
2021/09/23 16:53:06;;;;;;;3.80;1.45;;;27.50;38.70;;;;;;20891585;28;81720;-68
2021/09/23 17:03:08;;;;;;;5.00;1.25;;;27.00;39.50;;;;;;20897592;28;80704;-68
2021/09/23 17:13:10;;;;;;;3.80;1.00;;;26.70;39.90;;;;;;20892233;28;81917;-68
2021/09/23 17:23:12;;;;;;;3.10;0.90;;;26.50;40.60;;;;;;20891357;27;80203;-67
2021/09/23 17:33:14;;;;;;;6.85;1.23;;;26.20;41.00;;;;;;20876110;28;81192;-68
2021/09/23 17:43:15;;;;;;;5.50;1.35;;;25.90;41.70;;;;;;20893584;28;80795;-69
2021/09/23 17:53:17;;;;;;;4.97;1.15;;;25.70;42.30;;;;;;20892553;27;81845;-68
2021/09/23 18:03:19;;;;;;;9.02;1.55;;;25.40;42.90;;;;;;20892533;28;80800;-68
2021/09/23 18:13:21;;;;;;;5.15;1.40;;;25.30;43.10;;;;;;20890634;27;80072;-72
2021/09/23 18:23:22;;;;;;;3.72;1.38;;;25.20;43.10;;;;;;20824591;27;81863;-69
2021/09/23 18:33:24;;;;;;;20.92;2.95;;;25.10;43.20;;;;;;20838716;27;81920;-76
2021/09/23 18:43:27;;;;;;;8.38;1.60;;;25.00;43.80;;;;;;20888886;28;80136;-75
2021/09/23 18:53:32;;;;;;;4.60;1.25;;;24.90;44.60;;;;;;20871335;28;81791;-75
2021/09/23 19:03:34;;;;;;;5.03;1.13;;;24.60;45.60;;;;;;20864988;28;80418;-74
2021/09/23 19:13:36;;;;;;;10.48;1.15;;;24.40;49.90;;;;;;20880997;27;81823;-71
2021/09/23 19:23:38;;;;;;;12.88;1.60;;;24.00;50.30;;;;;;20880129;28;82213;-74
2021/09/23 19:33:40;;;;;;;;;;;23.90;49.00;;;;;;20861529;28;82404;-76
2021/09/23 19:43:41;;;;;;;9.43;1.33;;;23.70;48.80;;;;;;20882949;28;81216;-73
2021/09/23 19:53:44;;;;;;;11.10;2.13;;;23.60;50.10;;;;;;20857537;27;81046;-73
2021/09/23 20:03:48;;;;;;;11.77;1.50;;;23.40;51.20;;;;;;20867831;28;81761;-72
2021/09/23 20:13:50;;;;;;;11.25;2.33;;;23.30;52.30;;;;;;20868868;28;81612;-74
2021/09/23 20:23:54;;;;;;;10.52;1.95;;;23.20;53.50;;;;;;20867311;28;82078;-75
2021/09/23 20:33:57;;;;;;;15.55;2.78;;;23.00;55.00;;;;;;20867469;28;81804;-75
2021/09/23 20:43:59;;;;;;;15.57;2.47;;;22.70;59.60;;;;;;20866275;28;80874;-74
2021/09/23 20:54:02;;;;;;;13.40;2.67;;;22.30;62.10;;;;;;20879352;27;82085;-71
2021/09/23 21:04:05;;;;;;;32.03;5.10;;;21.50;67.00;;;;;;20873659;28;83448;-70
2021/09/23 21:14:10;;;;;;;25.75;4.32;;;19.10;80.80;;;;;;20896544;28;81582;-73
2021/09/23 21:24:13;;;;;;;14.98;2.95;;;19.20;84.10;;;;;;20894469;27;81736;-73
2021/09/23 21:34:15;;;;;;;22.00;5.28;;;19.10;85.10;;;;;;20893501;27;81836;-76
2021/09/23 21:44:16;;;;;;;23.80;5.33;;;19.30;85.50;;;;;;20893113;28;81938;-75
2021/09/23 21:54:18;;;;;;;15.83;3.93;;;19.40;86.20;;;;;;20873875;27;81953;-76
2021/09/23 22:04:20;;;;;;;17.60;3.67;;;19.50;86.50;;;;;;20872436;28;79939;-73
2021/09/23 22:14:22;;;;;;;18.05;4.07;;;19.50;86.80;;;;;;20892240;28;82004;-74
2021/09/23 22:24:25;;;;;;;11.43;2.60;;;19.40;87.30;;;;;;20888659;27;80973;-74
2021/09/23 22:34:28;;;;;;;13.70;4.03;;;19.20;87.30;;;;;;20870631;28;80203;-74
2021/09/23 22:44:29;;;;;;;;;;;19.30;87.40;;;;;;20889078;27;81205;-76
2021/09/23 22:54:32;;;;;;;8.15;2.60;;;19.20;88.30;;;;;;20910131;28;81592;-73
2021/09/23 23:04:33;;;;;;;12.73;3.17;;;19.00;87.70;;;;;;20886927;28;79993;-73
2021/09/23 23:14:35;;;;;;;8.00;2.60;;;18.90;87.80;;;;;;20868576;27;81979;-72
2021/09/23 23:24:39;;;;;;;8.15;2.72;;;18.80;87.70;;;;;;20886653;27;79840;-73
2021/09/23 23:34:41;;;;;;;5.20;2.40;;;18.60;87.70;;;;;;20885845;28;82061;-71
2021/09/23 23:44:42;;;;;;;6.73;2.03;;;18.70;87.40;;;;;;20884849;28;82270;-73
2021/09/23 23:54:44;;;;;;;7.90;2.37;;;18.50;87.20;;;;;;20865924;28;79937;-73
